Time;durP1;ratioP1;P1;durP2;ratioP2;P2;SDS_P1;SDS_P2;PMS_P1;PMS_P2;Temp;Humidity;BMP_temperature;BMP_pressure;BME280_temperature;BME280_humidity;BME280_pressure;Samples;Min_cycle;Max_cycle;Signal;HPM_P1;HPM_P2
2022/12/08 00:01:15;;;;;;;36.97;20.70;;;;;;;5.95;100.00;94676.63;5032811;28;20456;-81
2022/12/08 00:03:42;;;;;;;39.30;24.00;;;;;;;5.96;100.00;94690.47;5032887;28;20443;-82
2022/12/08 00:09:24;;;;;;;58.67;31.90;;;;;;;5.76;99.13;94697.03;5032895;28;20430;-81
2022/12/08 00:11:57;;;;;;;55.30;31.87;;;;;;;5.67;99.11;94713.28;5032653;28;20505;-81
2022/12/08 00:14:25;;;;;;;54.20;31.57;;;;;;;5.59;98.85;94722.47;5032864;28;20443;-82
2022/12/08 00:16:52;;;;;;;56.40;33.07;;;;;;;5.56;98.27;94730.47;5032169;28;20832;-82
2022/12/08 00:19:19;;;;;;;56.23;29.93;;;;;;;5.57;97.88;94726.94;4997906;28;20530;-82
2022/12/08 00:21:46;;;;;;;56.47;33.13;;;;;;;5.54;98.31;94729.75;5032526;28;20442;-81
2022/12/08 00:24:14;;;;;;;59.47;29.20;;;;;;;5.11;100.00;94738.75;5032406;28;20447;-81
2022/12/08 00:26:41;;;;;;;64.07;30.93;;;;;;;5.05;100.00;94739.97;5031825;28;20453;-82
2022/12/08 00:29:08;;;;;;;45.77;30.20;;;;;;;5.15;100.00;94740.19;4997591;28;20945;-82
2022/12/08 00:31:35;;;;;;;51.80;29.27;;;;;;;5.23;100.00;94743.16;5032439;28;20856;-81
2022/12/08 00:34:03;;;;;;;48.90;32.30;;;;;;;5.24;100.00;94744.81;5032410;28;20459;-82
2022/12/08 00:36:32;;;;;;;57.23;35.40;;;;;;;5.33;100.00;94749.41;5032300;28;20446;-82
2022/12/08 00:38:59;;;;;;;52.37;31.40;;;;;;;5.42;100.00;94738.38;5032398;28;20488;-81
2022/12/08 00:44:14;;;;;;;55.43;31.33;;;;;;;5.53;100.00;94735.06;5032145;28;20554;-82
2022/12/08 00:46:42;;;;;;;51.67;33.37;;;;;;;5.60;99.59;94742.34;5032066;28;20491;-82
2022/12/08 00:49:09;;;;;;;54.47;30.30;;;;;;;5.65;100.00;94747.22;5032321;28;20451;-82
2022/12/08 00:51:36;;;;;;;53.80;31.30;;;;;;;5.68;98.82;94754.00;5032407;28;20451;-81
2022/12/08 00:54:03;;;;;;;47.00;28.83;;;;;;;5.66;98.54;94750.66;5032329;28;20444;-82
2022/12/08 00:56:31;;;;;;;41.97;28.10;;;;;;;5.67;98.84;94765.34;5032134;28;20452;-81
2022/12/08 00:58:58;;;;;;;55.07;27.80;;;;;;;5.59;98.86;94761.50;5032315;28;20454;-81
2022/12/08 01:01:25;;;;;;;46.80;26.63;;;;;;;5.57;97.76;94768.56;5031906;28;20459;-80
2022/12/08 01:03:52;;;;;;;53.50;29.40;;;;;;;5.55;98.19;94761.81;5032143;28;20473;-82
2022/12/08 01:06:18;;;;;;;49.57;30.10;;;;;;;5.53;99.37;94751.50;5031858;28;20454;-81
2022/12/08 01:08:45;;;;;;;62.53;26.00;;;;;;;5.52;100.00;94744.63;5032198;28;20451;-81
2022/12/08 01:11:15;;;;;;;45.47;26.93;;;;;;;5.60;100.00;94747.53;5032317;28;20452;-82
2022/12/08 01:13:43;;;;;;;42.20;25.83;;;;;;;5.68;100.00;94738.38;5032181;28;20451;-82
2022/12/08 01:16:18;;;;;;;49.70;27.50;;;;;;;5.71;100.00;94735.56;5031794;28;20498;-81
2022/12/08 01:18:45;;;;;;;42.57;24.87;;;;;;;5.78;100.00;94744.63;5031903;28;20489;-81
2022/12/08 01:21:12;;;;;;;42.47;24.40;;;;;;;5.81;100.00;94741.81;4996748;28;20443;-82
2022/12/08 01:23:38;;;;;;;37.93;22.47;;;;;;;5.83;100.00;94755.56;5032175;28;20467;-82
2022/12/08 01:26:07;;;;;;;33.13;21.47;;;;;;;5.86;100.00;94744.94;5032152;28;20455;-82
2022/12/08 01:28:34;;;;;;;31.20;20.20;;;;;;;5.86;100.00;94750.16;5032056;28;20450;-82
2022/12/08 01:31:02;;;;;;;41.20;22.97;;;;;;;5.73;100.00;94747.53;5032060;28;20454;-81
2022/12/08 01:33:29;;;;;;;35.07;22.53;;;;;;;5.76;100.00;94756.91;5031776;28;20455;-82
2022/12/08 01:35:56;;;;;;;41.13;22.13;;;;;;;5.72;100.00;94745.88;5031892;28;20452;-82
2022/12/08 01:38:23;;;;;;;39.27;22.00;;;;;;;5.73;100.00;94731.09;5034776;28;20483;-82
2022/12/08 01:40:50;;;;;;;29.70;20.57;;;;;;;5.65;100.00;94722.97;5035350;28;20453;-81
2022/12/08 01:43:19;;;;;;;28.07;19.30;;;;;;;5.69;100.00;94727.03;5035656;28;20447;-82
2022/12/08 01:45:47;;;;;;;34.10;18.80;;;;;;;5.70;100.00;94726.91;5035559;28;20463;-82
2022/12/08 01:48:18;;;;;;;28.23;18.00;;;;;;;5.68;100.00;94725.34;5035368;28;20481;-82
2022/12/08 01:50:47;;;;;;;27.27;19.33;;;;;;;5.69;100.00;94714.84;5035252;28;20451;-82
2022/12/08 01:53:18;;;;;;;23.10;15.73;;;;;;;5.76;100.00;94704.84;5035070;28;20457;-82
2022/12/08 01:55:50;;;;;;;26.70;17.03;;;;;;;5.80;100.00;94706.31;5035376;28;20448;-82
2022/12/08 01:58:21;;;;;;;29.17;17.67;;;;;;;5.83;100.00;94703.50;5034956;28;20478;-82
2022/12/08 02:00:49;;;;;;;34.17;21.00;;;;;;;5.74;100.00;94707.53;5035395;28;20443;-81
2022/12/08 02:03:23;;;;;;;36.40;21.60;;;;;;;5.13;100.00;94701.28;5035568;28;20856;-82
2022/12/08 02:05:52;;;;;;;44.73;27.07;;;;;;;4.61;100.00;94696.06;5034915;28;20453;-81
2022/12/08 02:08:19;;;;;;;44.50;26.90;;;;;;;4.89;100.00;94698.53;5034987;28;20937;-82
2022/12/08 02:10:47;;;;;;;47.97;25.20;;;;;;;4.91;100.00;94698.44;5034973;28;20819;-81
2022/12/08 02:13:17;;;;;;;41.07;24.70;;;;;;;4.97;100.00;94701.50;5035193;28;20446;-82
2022/12/08 02:15:56;;;;;;;38.60;26.80;;;;;;;4.87;100.00;94695.22;5034998;28;20786;-82
2022/12/08 02:18:39;;;;;;;42.73;26.80;;;;;;;4.97;100.00;94706.69;5035015;28;20505;-82
2022/12/08 02:21:10;;;;;;;47.47;29.53;;;;;;;5.03;100.00;94702.84;5034695;28;20442;-82
2022/12/08 02:23:47;;;;;;;44.00;28.87;;;;;;;5.09;100.00;94701.59;5034872;28;20446;-82
2022/12/08 02:26:58;;;;;;;39.87;27.37;;;;;;;5.12;100.00;94704.00;4999633;28;20890;-82
2022/12/08 02:30:05;;;;;;;47.00;28.10;;;;;;;5.20;100.00;94710.38;5034311;28;20453;-81
2022/12/08 02:33:15;;;;;;;43.60;27.17;;;;;;;5.16;100.00;94711.50;5034624;28;20447;-82
2022/12/08 02:35:53;;;;;;;46.77;27.37;;;;;;;5.06;100.00;94715.63;5034646;28;20463;-82
2022/12/08 02:38:29;;;;;;;40.53;25.77;;;;;;;5.14;100.00;94715.13;5034235;28;20493;-82
2022/12/08 02:41:04;;;;;;;42.83;25.77;;;;;;;5.10;100.00;94711.91;5034706;28;20443;-81
2022/12/08 02:43:38;;;;;;;65.67;36.53;;;;;;;5.08;100.00;94726.78;5034385;28;20450;-83
2022/12/08 02:46:11;;;;;;;67.00;38.63;;;;;;;5.14;100.00;94720.31;5034218;28;20453;-82
2022/12/08 02:48:37;;;;;;;53.10;32.20;;;;;;;5.19;100.00;94716.47;5034108;28;20475;-82
2022/12/08 02:51:06;;;;;;;42.03;27.57;;;;;;;5.25;100.00;94710.06;5034298;28;20451;-82
2022/12/08 02:53:35;;;;;;;37.27;23.90;;;;;;;5.28;100.00;94708.09;5033930;28;20455;-82
2022/12/08 02:56:14;;;;;;;40.73;24.20;;;;;;;5.26;100.00;94701.31;5034234;28;20945;-81
2022/12/08 02:59:02;;;;;;;37.23;25.13;;;;;;;5.27;100.00;94705.59;5034135;28;20485;-82
2022/12/08 03:01:52;;;;;;;41.80;23.80;;;;;;;5.18;100.00;94707.00;4953654;29;20860;-81
2022/12/08 03:04:26;;;;;;;44.47;23.93;;;;;;;5.21;100.00;94706.00;4953776;29;20478;-82
2022/12/08 03:07:04;;;;;;;42.37;24.50;;;;;;;5.17;100.00;94713.16;4953500;29;20450;-82
2022/12/08 03:09:38;;;;;;;34.97;21.50;;;;;;;5.15;100.00;94703.78;4953438;29;20451;-82
2022/12/08 03:12:11;;;;;;;35.90;24.13;;;;;;;5.11;100.00;94704.94;4953381;29;20481;-82
2022/12/08 03:14:42;;;;;;;37.67;23.60;;;;;;;5.07;100.00;94701.69;4953376;29;20454;-82
2022/12/08 03:17:09;;;;;;;44.70;23.00;;;;;;;5.07;100.00;94700.88;4953288;29;20450;-81
2022/12/08 03:19:41;;;;;;;35.33;22.13;;;;;;;5.07;100.00;94700.88;4953265;29;20457;-82
2022/12/08 03:22:11;;;;;;;33.33;21.07;;;;;;;5.12;100.00;94701.38;4953473;29;20835;-81
2022/12/08 03:24:41;;;;;;;41.67;25.47;;;;;;;5.05;100.00;94694.94;4953324;29;20451;-82
2022/12/08 03:27:10;;;;;;;65.77;36.63;;;;;;;4.93;100.00;94687.03;4953128;29;20494;-82
2022/12/08 03:29:37;;;;;;;56.77;33.63;;;;;;;5.00;100.00;94702.22;4953075;29;20459;-81
2022/12/08 03:32:13;;;;;;;65.10;38.47;;;;;;;5.01;100.00;94698.69;4953462;29;20454;-81
2022/12/08 03:34:44;;;;;;;61.27;33.30;;;;;;;5.03;100.00;94702.00;4953111;29;20626;-81
2022/12/08 03:37:13;;;;;;;62.30;36.10;;;;;;;5.05;100.00;94700.97;4921971;29;20458;-81
2022/12/08 03:39:39;;;;;;;55.90;32.13;;;;;;;5.01;100.00;94690.88;5021756;28;20454;-82
2022/12/08 03:42:06;;;;;;;49.70;30.20;;;;;;;5.04;100.00;94701.06;5033689;28;20449;-82
2022/12/08 03:44:33;;;;;;;44.93;27.97;;;;;;;5.05;100.00;94702.75;5033463;28;20450;-82
2022/12/08 03:47:00;;;;;;;35.60;23.67;;;;;;;5.05;100.00;94702.75;5032869;28;20481;-82
2022/12/08 03:49:27;;;;;;;33.67;19.10;;;;;;;5.05;100.00;94706.19;5033267;28;20799;-82
2022/12/08 03:51:54;;;;;;;32.63;18.63;;;;;;;4.86;100.00;94703.09;5033191;28;20458;-82
2022/12/08 03:54:23;;;;;;;27.50;19.43;;;;;;;4.84;100.00;94703.22;5032969;28;20438;-82
2022/12/08 03:56:49;;;;;;;30.77;19.40;;;;;;;4.91;100.00;94712.25;5032876;28;20461;-82
2022/12/08 03:59:16;;;;;;;27.77;17.60;;;;;;;4.96;100.00;94712.00;5033293;28;20633;-82
2022/12/08 04:01:43;;;;;;;27.13;20.23;;;;;;;4.97;100.00;94711.88;5032389;28;20504;-82
2022/12/08 04:04:10;;;;;;;30.33;18.33;;;;;;;4.95;100.00;94705.97;5033062;28;20839;-82
2022/12/08 04:06:37;;;;;;;29.40;18.90;;;;;;;4.97;100.00;94711.06;5032818;28;20458;-82
2022/12/08 04:09:04;;;;;;;34.97;21.47;;;;;;;4.98;100.00;94700.56;5032892;28;20451;-81
2022/12/08 04:11:32;;;;;;;32.20;20.00;;;;;;;4.94;100.00;94716.47;5032652;28;20458;-82
2022/12/08 04:13:59;;;;;;;35.87;21.03;;;;;;;4.93;100.00;94714.78;5032723;28;20455;-82
2022/12/08 04:16:27;;;;;;;28.93;20.10;;;;;;;4.93;100.00;94705.22;5032591;28;20450;-81
2022/12/08 04:18:54;;;;;;;45.17;23.07;;;;;;;5.01;100.00;94714.28;5033133;28;21246;-76
2022/12/08 04:21:21;;;;;;;27.53;19.07;;;;;;;5.07;100.00;94717.31;5033047;28;20446;-77
2022/12/08 04:23:48;;;;;;;25.37;17.23;;;;;;;5.10;100.00;94706.69;5033255;28;20450;-83
2022/12/08 04:26:16;;;;;;;26.43;17.40;;;;;;;5.19;100.00;94724.28;5033849;28;20469;-82
2022/12/08 04:28:44;;;;;;;30.20;18.73;;;;;;;5.14;100.00;94702.13;5033409;28;20455;-81
2022/12/08 04:31:11;;;;;;;25.27;15.70;;;;;;;5.21;100.00;94717.25;5033444;28;20454;-81
2022/12/08 04:33:38;;;;;;;25.57;17.73;;;;;;;5.18;100.00;94719.19;5033299;28;20464;-81
2022/12/08 04:36:06;;;;;;;25.57;15.70;;;;;;;5.22;100.00;94718.91;5033132;28;20446;-81
2022/12/08 04:38:33;;;;;;;21.33;15.57;;;;;;;5.24;100.00;94716.19;5032763;28;20490;-80
2022/12/08 04:41:00;;;;;;;22.03;15.60;;;;;;;5.22;100.00;94710.28;5033292;28;20597;-81
2022/12/08 04:43:27;;;;;;;25.00;15.70;;;;;;;5.28;100.00;94720.25;5033150;28;20458;-81
2022/12/08 04:45:56;;;;;;;23.63;15.93;;;;;;;5.35;100.00;94731.91;5033391;28;20454;-81
2022/12/08 04:48:22;;;;;;;25.20;15.63;;;;;;;5.38;100.00;94721.28;5032864;28;20995;-81
2022/12/08 04:50:50;;;;;;;19.60;15.33;;;;;;;5.38;100.00;94721.28;5033414;28;20442;-81
2022/12/08 04:53:18;;;;;;;25.27;14.77;;;;;;;5.44;100.00;94723.47;4990019;28;20446;-81
2022/12/08 04:55:47;;;;;;;26.10;17.23;;;;;;;5.48;100.00;94727.53;5029014;28;20497;-81
2022/12/08 04:58:15;;;;;;;25.00;16.83;;;;;;;5.50;100.00;94715.28;5027746;28;20573;-80
2022/12/08 05:00:42;;;;;;;31.83;18.30;;;;;;;5.53;100.00;94720.28;5028847;28;20435;-81
2022/12/08 05:03:11;;;;;;;31.27;18.40;;;;;;;5.58;100.00;94727.75;5029875;28;20459;-81
2022/12/08 05:05:37;;;;;;;25.77;16.77;;;;;;;5.63;100.00;94725.69;5029591;28;20493;-81
2022/12/08 05:08:05;;;;;;;29.33;18.03;;;;;;;5.66;100.00;94735.88;5029833;28;20479;-81
2022/12/08 05:10:32;;;;;;;29.90;18.70;;;;;;;5.71;100.00;94732.97;5028899;28;20836;-82
2022/12/08 05:12:59;;;;;;;29.83;16.63;;;;;;;5.75;100.00;94737.84;5032706;28;20796;-81
2022/12/08 05:15:26;;;;;;;29.57;19.37;;;;;;;5.77;100.00;94742.94;5033865;28;20442;-82
2022/12/08 05:17:53;;;;;;;37.07;21.63;;;;;;;5.66;100.00;94735.03;4983080;28;20503;-81
2022/12/08 05:20:22;;;;;;;32.17;20.53;;;;;;;5.66;100.00;94735.88;5033547;28;20435;-82
2022/12/08 05:22:49;;;;;;;40.67;20.43;;;;;;;5.71;100.00;94735.56;5033485;28;20952;-81
2022/12/08 05:25:16;;;;;;;28.83;19.27;;;;;;;5.73;100.00;94736.28;5033602;28;20799;-81
2022/12/08 05:27:43;;;;;;;38.27;23.27;;;;;;;5.62;100.00;94737.03;5033386;28;20431;-81
2022/12/08 05:30:10;;;;;;;27.90;18.97;;;;;;;5.71;100.00;94739.00;5033298;28;20440;-81
2022/12/08 05:32:37;;;;;;;35.63;21.70;;;;;;;5.68;100.00;94739.22;5033279;28;20797;-80
2022/12/08 05:35:04;;;;;;;34.53;23.70;;;;;;;5.69;100.00;94746.06;5036955;28;20463;-81
2022/12/08 05:37:32;;;;;;;64.03;35.53;;;;;;;5.73;100.00;94746.69;5033118;28;20439;-81
2022/12/08 05:39:59;;;;;;;60.07;32.30;;;;;;;5.79;100.00;94741.09;5032419;28;20480;-81
2022/12/08 05:42:26;;;;;;;58.43;32.73;;;;;;;5.81;100.00;94731.41;5033291;28;20445;-81
2022/12/08 05:44:53;;;;;;;62.60;37.93;;;;;;;5.78;100.00;94755.88;5034294;28;20942;-80
2022/12/08 05:47:19;;;;;;;71.33;43.10;;;;;;;5.82;100.00;94757.34;5034352;28;20451;-80
2022/12/08 05:49:46;;;;;;;61.83;39.00;;;;;;;5.80;100.00;94761.00;5034550;28;20501;-81
2022/12/08 05:52:15;;;;;;;61.50;34.90;;;;;;;5.55;100.00;94765.25;5034960;28;20454;-81
2022/12/08 05:54:43;;;;;;;55.07;32.43;;;;;;;5.43;100.00;94768.66;5034015;28;20486;-82
2022/12/08 05:57:10;;;;;;;58.13;32.43;;;;;;;5.28;100.00;94748.88;5033163;28;20446;-83
2022/12/08 05:59:37;;;;;;;66.27;38.40;;;;;;;5.35;100.00;94747.53;5035515;28;20481;-83
2022/12/08 06:02:04;;;;;;;75.37;47.40;;;;;;;5.41;100.00;94760.13;5034983;28;20497;-80
2022/12/08 06:04:31;;;;;;;77.17;45.30;;;;;;;5.36;100.00;94759.59;5034051;28;20805;-82
2022/12/08 06:06:57;;;;;;;49.80;32.70;;;;;;;5.18;100.00;94763.41;5035055;28;20443;-80
2022/12/08 06:09:24;;;;;;;46.37;31.73;;;;;;;5.18;100.00;94763.41;5034274;28;20562;-81
2022/12/08 06:11:52;;;;;;;54.83;32.30;;;;;;;5.21;100.00;94761.47;5033119;28;20439;-82
2022/12/08 06:14:19;;;;;;;54.07;32.00;;;;;;;5.01;100.00;94761.09;5034000;28;20494;-82
2022/12/08 06:16:46;;;;;;;53.47;33.20;;;;;;;4.89;100.00;94747.94;5034353;28;20462;-82
2022/12/08 06:19:13;;;;;;;58.40;29.80;;;;;;;4.90;100.00;94780.78;5032006;28;20486;-84
2022/12/08 06:21:40;;;;;;;59.70;36.77;;;;;;;4.90;100.00;94791.19;5033676;28;20505;-82
2022/12/08 06:24:07;;;;;;;61.83;35.63;;;;;;;4.85;100.00;94776.84;5036256;28;20929;-80
2022/12/08 06:26:34;;;;;;;61.00;34.80;;;;;;;4.83;100.00;94766.53;5034002;28;20538;-80
2022/12/08 06:29:03;;;;;;;54.07;33.27;;;;;;;4.89;100.00;94781.72;5033533;28;21811;-79
2022/12/08 06:31:30;;;;;;;56.63;33.27;;;;;;;4.95;100.00;94791.75;5034199;28;20802;-79
2022/12/08 06:33:57;;;;;;;72.30;36.00;;;;;;;4.96;100.00;94788.22;5034908;28;20449;-79
2022/12/08 06:36:26;;;;;;;66.07;40.30;;;;;;;4.89;100.00;94797.31;5035198;28;20453;-79
2022/12/08 06:38:53;;;;;;;66.13;43.13;;;;;;;4.96;100.00;94803.81;5034726;28;20851;-80
2022/12/08 06:41:20;;;;;;;72.17;41.67;;;;;;;4.96;100.00;94801.22;5034813;28;20450;-81
2022/12/08 06:43:47;;;;;;;70.80;43.00;;;;;;;5.10;100.00;94796.88;5034642;28;20469;-81
2022/12/08 06:46:17;;;;;;;56.93;42.23;;;;;;;5.18;100.00;94798.03;5034293;28;20829;-81
2022/12/08 06:48:44;;;;;;;65.97;40.27;;;;;;;4.88;100.00;94784.44;5034887;28;20455;-80
2022/12/08 06:51:13;;;;;;;50.07;34.23;;;;;;;4.94;100.00;94789.25;5034475;28;20452;-80
2022/12/08 06:53:41;;;;;;;49.10;32.00;;;;;;;4.98;100.00;94791.56;5034722;28;20465;-81
2022/12/08 06:56:08;;;;;;;57.87;31.90;;;;;;;5.03;100.00;94780.03;4999649;28;20447;-80
2022/12/08 06:58:35;;;;;;;53.80;32.60;;;;;;;4.71;100.00;94772.53;5032048;28;20447;-78
2022/12/08 07:01:07;;;;;;;70.13;34.20;;;;;;;4.88;100.00;94774.88;5039214;28;20454;-81
2022/12/08 07:03:36;;;;;;;55.60;34.03;;;;;;;5.05;100.00;94778.16;5029542;28;20471;-78
2022/12/08 07:06:03;;;;;;;69.97;34.43;;;;;;;5.21;100.00;94782.28;5004902;28;20453;-80
2022/12/08 07:08:30;;;;;;;53.70;33.17;;;;;;;5.12;100.00;94788.06;5029371;28;20960;-81
2022/12/08 07:10:57;;;;;;;54.70;32.73;;;;;;;5.34;100.00;94773.66;5032925;28;20455;-80
2022/12/08 07:13:24;;;;;;;59.53;33.50;;;;;;;5.44;100.00;94782.50;5033813;28;20458;-81
2022/12/08 07:15:51;;;;;;;52.73;31.10;;;;;;;5.41;100.00;94788.75;5034081;28;20459;-81
2022/12/08 07:18:17;;;;;;;56.70;36.30;;;;;;;5.60;100.00;94798.78;5034688;28;20446;-80
2022/12/08 07:20:46;;;;;;;85.90;44.60;;;;;;;5.65;100.00;94798.47;5033743;28;20482;-80
2022/12/08 07:23:13;;;;;;;89.67;48.30;;;;;;;5.65;100.00;94798.47;5033777;28;20459;-81
2022/12/08 07:25:39;;;;;;;72.77;45.23;;;;;;;5.69;100.00;94807.72;5034173;28;20530;-80
2022/12/08 07:28:10;;;;;;;70.47;40.47;;;;;;;5.62;100.00;94807.31;5034102;28;20454;-80
2022/12/08 07:30:38;;;;;;;70.83;43.97;;;;;;;5.61;100.00;94805.63;5034353;28;20450;-80
2022/12/08 07:33:05;;;;;;;66.67;42.20;;;;;;;5.50;100.00;94810.72;5033874;28;20458;-81
2022/12/08 07:35:32;;;;;;;75.93;46.23;;;;;;;5.57;100.00;94815.44;5033624;28;21004;-81
2022/12/08 07:38:00;;;;;;;81.63;45.97;;;;;;;5.65;100.00;94833.13;5034053;28;20452;-80
2022/12/08 07:40:27;;;;;;;89.03;50.80;;;;;;;5.66;100.00;94828.75;5033799;28;20490;-80
2022/12/08 07:42:54;;;;;;;102.10;61.37;;;;;;;5.79;100.00;94838.25;5033985;28;20440;-80
2022/12/08 07:45:20;;;;;;;107.23;60.77;;;;;;;5.73;100.00;94822.19;5033876;28;20448;-81
2022/12/08 07:47:47;;;;;;;98.33;59.70;;;;;;;5.73;100.00;94827.41;5033921;28;20487;-81
2022/12/08 07:50:14;;;;;;;99.93;59.50;;;;;;;5.66;100.00;94826.16;5033906;28;20438;-80
2022/12/08 07:52:41;;;;;;;103.33;62.60;;;;;;;5.78;100.00;94833.13;4998679;28;20432;-81
2022/12/08 07:55:10;;;;;;;89.07;53.70;;;;;;;5.90;100.00;94827.16;5033354;28;20450;-81
2022/12/08 07:57:37;;;;;;;114.73;69.43;;;;;;;5.99;100.00;94820.47;4998692;28;20480;-81
2022/12/08 08:00:05;;;;;;;104.57;64.43;;;;;;;6.13;100.00;94834.25;5035328;28;20487;-82
2022/12/08 08:02:31;;;;;;;108.70;63.20;;;;;;;6.20;100.00;94819.84;5052872;28;20449;-81
2022/12/08 08:04:58;;;;;;;90.50;54.60;;;;;;;6.14;100.00;94828.09;5041777;28;20928;-82
2022/12/08 08:07:25;;;;;;;94.83;61.63;;;;;;;6.29;100.00;94830.56;5033202;28;20847;-81
2022/12/08 08:09:52;;;;;;;89.90;54.80;;;;;;;6.27;100.00;94824.63;5033557;28;20859;-81
2022/12/08 08:12:20;;;;;;;73.10;44.07;;;;;;;5.96;100.00;94825.91;5033707;28;20850;-79
2022/12/08 08:14:47;;;;;;;77.20;44.17;;;;;;;6.20;100.00;94830.28;5032638;28;20506;-80
2022/12/08 08:17:13;;;;;;;62.47;40.77;;;;;;;6.42;100.00;94829.63;5030443;28;20443;-79
2022/12/08 08:19:40;;;;;;;57.57;37.60;;;;;;;6.59;100.00;94831.03;5032667;28;20490;-79
2022/12/08 08:22:07;;;;;;;56.93;36.50;;;;;;;6.75;100.00;94822.97;5033204;28;20521;-80
2022/12/08 08:24:34;;;;;;;61.07;37.67;;;;;;;6.87;100.00;94824.72;4998050;28;20445;-80
2022/12/08 08:27:01;;;;;;;60.37;35.37;;;;;;;6.97;100.00;94830.13;5032549;28;20456;-80
2022/12/08 08:29:29;;;;;;;61.50;35.83;;;;;;;7.02;100.00;94817.56;5033366;28;20462;-81
2022/12/08 08:31:56;;;;;;;64.87;35.77;;;;;;;7.06;100.00;94824.22;5033268;28;20814;-81
2022/12/08 08:34:22;;;;;;;75.67;43.37;;;;;;;7.17;100.00;94826.06;5033144;28;20448;-81
2022/12/08 08:36:49;;;;;;;75.77;45.20;;;;;;;7.28;100.00;94826.97;5032647;28;20453;-81
2022/12/08 08:39:16;;;;;;;72.43;38.73;;;;;;;7.43;100.00;94827.59;5032722;28;20972;-80
2022/12/08 08:41:43;;;;;;;58.67;37.53;;;;;;;7.54;100.00;94829.44;5032890;28;20456;-81
2022/12/08 08:44:10;;;;;;;57.53;32.93;;;;;;;7.63;100.00;94813.91;5032984;28;20452;-81
2022/12/08 08:46:38;;;;;;;44.73;28.47;;;;;;;7.77;100.00;94815.47;5032206;28;20527;-81
2022/12/08 08:49:05;;;;;;;59.53;33.10;;;;;;;7.90;100.00;94816.25;5032900;28;20461;-81
2022/12/08 08:51:34;;;;;;;44.57;31.33;;;;;;;7.97;100.00;94812.22;5033023;28;20496;-80
2022/12/08 08:54:01;;;;;;;53.07;33.67;;;;;;;8.08;100.00;94799.16;5032639;28;20932;-80
2022/12/08 08:56:27;;;;;;;44.17;26.40;;;;;;;8.19;99.51;94808.78;5032976;28;20452;-81
2022/12/08 08:58:54;;;;;;;38.07;25.83;;;;;;;8.22;98.85;94820.78;5032596;28;20510;-81
2022/12/08 09:01:23;;;;;;;38.77;26.37;;;;;;;8.28;98.85;94807.25;5030137;28;21335;-80
2022/12/08 09:03:51;;;;;;;53.50;30.10;;;;;;;8.34;99.02;94812.03;5031758;28;20451;-82
2022/12/08 09:06:19;;;;;;;30.60;20.20;;;;;;;8.43;97.70;94815.72;5032368;28;20851;-80
2022/12/08 09:08:46;;;;;;;22.13;13.40;;;;;;;8.39;96.50;94817.75;5032548;28;20492;-81
2022/12/08 09:11:14;;;;;;;33.83;20.90;;;;;;;8.48;97.18;94801.34;5032235;28;20445;-80
2022/12/08 09:13:41;;;;;;;40.93;24.13;;;;;;;8.63;97.27;94799.31;5004345;28;20436;-80
2022/12/08 09:16:09;;;;;;;43.10;25.40;;;;;;;8.79;97.60;94793.72;5013367;28;20447;-79
2022/12/08 09:18:36;;;;;;;38.70;24.83;;;;;;;8.96;96.90;94790.56;5018757;28;20495;-81
2022/12/08 09:21:11;;;;;;;38.73;23.80;;;;;;;9.05;95.24;94789.84;5018000;28;20486;-80
2022/12/08 09:23:38;;;;;;;45.10;23.27;;;;;;;9.16;94.90;94787.19;5018516;28;20941;-80
2022/12/08 09:26:05;;;;;;;28.30;20.87;;;;;;;9.25;94.29;94781.22;5031782;28;20443;-78
2022/12/08 09:28:32;;;;;;;36.20;24.50;;;;;;;9.25;93.88;94786.44;5029618;28;20481;-81
2022/12/08 09:30:59;;;;;;;36.80;22.33;;;;;;;9.09;93.70;94780.78;5032293;28;20856;-80
2022/12/08 09:33:26;;;;;;;38.90;23.47;;;;;;;9.30;93.88;94780.84;5015288;28;20474;-81
2022/12/08 09:35:53;;;;;;;37.23;23.70;;;;;;;9.43;92.96;94772.78;5031478;28;20460;-80
2022/12/08 09:38:21;;;;;;;36.87;23.87;;;;;;;9.51;92.94;94765.97;5021211;28;20911;-81
2022/12/08 09:40:50;;;;;;;38.60;23.53;;;;;;;9.68;93.26;94771.59;5013031;28;20489;-81
2022/12/08 09:43:41;;;;;;;43.37;25.27;;;;;;;9.83;92.09;94767.69;5029117;28;20470;-80
2022/12/08 09:46:10;;;;;;;38.00;24.60;;;;;;;9.96;92.17;94762.25;5015626;28;20499;-81
2022/12/08 09:48:41;;;;;;;47.80;25.90;;;;;;;10.05;91.24;94769.34;5024497;28;20479;-80
2022/12/08 09:51:10;;;;;;;42.80;25.00;;;;;;;10.07;91.68;94768.25;5024099;28;20443;-81
2022/12/08 09:53:44;;;;;;;39.97;26.70;;;;;;;9.97;90.75;94769.16;5032032;28;20950;-80
2022/12/08 09:56:15;;;;;;;41.20;24.37;;;;;;;9.79;91.27;94780.22;5032553;28;20452;-80
2022/12/08 09:58:51;;;;;;;37.47;24.33;;;;;;;9.85;91.45;94771.03;5033196;28;20472;-81
2022/12/08 10:01:19;;;;;;;39.00;24.40;;;;;;;9.66;91.42;94769.13;5035932;28;20482;-81
2022/12/08 10:03:46;;;;;;;31.03;20.33;;;;;;;9.64;90.76;94768.41;5035755;28;20479;-80
2022/12/08 10:06:21;;;;;;;32.13;20.60;;;;;;;9.71;91.88;94750.38;5035437;28;20442;-80
2022/12/08 10:08:58;;;;;;;26.53;18.27;;;;;;;9.78;91.05;94735.81;5035108;28;20458;-80
2022/12/08 10:11:36;;;;;;;23.10;16.93;;;;;;;9.74;90.83;94737.03;5035594;28;21000;-78
2022/12/08 10:14:13;;;;;;;22.13;17.50;;;;;;;9.68;90.76;94738.38;5035544;28;20489;-80
2022/12/08 10:16:44;;;;;;;30.67;18.70;;;;;;;9.83;91.22;94739.72;5035720;28;20457;-80
2022/12/08 10:19:16;;;;;;;32.90;19.40;;;;;;;9.89;91.41;94728.72;5035301;28;20493;-80
2022/12/08 10:21:42;;;;;;;32.20;19.70;;;;;;;9.97;91.25;94730.69;5035176;28;20992;-80
2022/12/08 10:24:21;;;;;;;36.30;21.30;;;;;;;10.06;91.22;94736.91;5035245;28;20438;-81
2022/12/08 10:26:49;;;;;;;33.50;20.00;;;;;;;10.10;90.26;94728.66;5035223;28;20530;-80
2022/12/08 10:29:16;;;;;;;28.70;20.80;;;;;;;10.18;91.13;94728.03;5035081;28;20450;-80
2022/12/08 10:31:43;;;;;;;29.00;19.50;;;;;;;10.24;90.57;94723.09;5035520;28;20462;-81
2022/12/08 10:34:17;;;;;;;30.33;18.50;;;;;;;10.36;89.19;94717.75;5034915;28;20538;-80
2022/12/08 10:36:50;;;;;;;29.27;17.50;;;;;;;10.46;89.34;94727.34;4999976;28;20452;-81
2022/12/08 10:39:30;;;;;;;26.03;17.70;;;;;;;10.46;88.99;94721.25;5034657;28;20449;-80
2022/12/08 10:42:01;;;;;;;33.63;19.37;;;;;;;10.35;88.76;94714.31;5034819;28;20445;-79
2022/12/08 10:44:29;;;;;;;27.17;17.70;;;;;;;10.29;89.38;94714.84;5035159;28;20518;-80
2022/12/08 10:46:56;;;;;;;27.43;16.80;;;;;;;10.22;88.33;94708.47;5034709;28;20584;-80
2022/12/08 10:49:27;;;;;;;29.07;18.60;;;;;;;10.19;89.73;94708.72;5035002;28;20441;-80
2022/12/08 10:51:54;;;;;;;25.53;17.80;;;;;;;10.14;90.40;94701.25;5035045;28;20479;-81
2022/12/08 10:54:32;;;;;;;33.47;19.67;;;;;;;10.12;89.50;94697.06;5034821;28;20446;-79
2022/12/08 10:56:59;;;;;;;30.60;18.97;;;;;;;10.13;89.98;94698.75;5034368;28;20462;-80
2022/12/08 10:59:25;;;;;;;26.47;17.00;;;;;;;10.16;90.14;94695.88;5034476;28;20443;-81
2022/12/08 11:01:54;;;;;;;29.30;18.67;;;;;;;10.21;90.72;94694.53;5034334;28;20832;-80
2022/12/08 11:04:23;;;;;;;27.63;17.57;;;;;;;10.09;89.98;94686.84;4983273;28;20922;-81
2022/12/08 11:06:51;;;;;;;25.57;18.90;;;;;;;10.22;89.95;94693.56;5034731;28;20447;-80
2022/12/08 11:09:26;;;;;;;29.43;19.53;;;;;;;10.19;90.53;94690.34;5034275;28;20840;-81
2022/12/08 11:11:57;;;;;;;27.23;19.27;;;;;;;10.00;89.91;94685.03;5034370;28;20452;-81
2022/12/08 11:14:27;;;;;;;35.67;20.10;;;;;;;10.21;90.75;94683.22;4984470;28;20447;-81
2022/12/08 11:16:56;;;;;;;31.60;19.50;;;;;;;10.24;89.97;94682.94;5033898;28;20459;-81
2022/12/08 11:19:27;;;;;;;31.20;20.53;;;;;;;10.15;90.07;94681.94;5033709;28;20455;-81
2022/12/08 11:21:54;;;;;;;31.17;20.57;;;;;;;10.27;90.21;94677.44;5034227;28;20569;-81
2022/12/08 11:24:23;;;;;;;33.77;20.40;;;;;;;10.24;89.96;94667.22;5034123;28;20439;-81
2022/12/08 11:26:55;;;;;;;42.50;22.40;;;;;;;10.32;89.98;94659.50;5034047;28;20449;-80
2022/12/08 11:29:22;;;;;;;39.80;22.40;;;;;;;10.40;89.82;94661.44;5034136;28;20803;-80
2022/12/08 11:31:53;;;;;;;30.90;21.03;;;;;;;10.45;89.38;94665.34;5034409;28;20462;-81
2022/12/08 11:34:25;;;;;;;39.47;21.70;;;;;;;10.53;88.67;94655.00;5034060;28;20798;-81